BEL2JE EKCH-EBBR
Flight info
| Callsign | BEL2JE |
|---|---|
| Flight time | N/A |
| Altitude | 38000 |
| Route | LANGO P999 ALS N872 LILSI Z310 WOODY |
| Aircraft | A320/M-DE3FGHIJ1LORVWY/HB1 |
Departure
| Time | 2026-04-25 20:52 |
|---|---|
| Airport | Copenhagen Kastrup Airport (EKCH) |
Arrival
| Time | N/A |
|---|---|
| Airport | Brussels Airport (EBBR) |
| Time | Latitude | Longitude | Altitude | Speed | Heading |
|---|---|---|---|---|---|
| 2026-04-25 20:03 | 55.62752 | 12.64593 | 24 ft | 0 kts | 282° |
| 2026-04-25 20:37 | 55.62748 | 12.64620 | -2 ft | 4 kts | 282° |
| 2026-04-25 20:37 | 55.62744 | 12.64666 | 26 ft | 4 kts | 268° |
| 2026-04-25 20:37 | 55.62750 | 12.64703 | 24 ft | 4 kts | 194° |
| 2026-04-25 20:38 | 55.62742 | 12.64700 | 24 ft | 4 kts | 191° |
| 2026-04-25 20:38 | 55.62716 | 12.64691 | 24 ft | 4 kts | 191° |
| 2026-04-25 20:38 | 55.62689 | 12.64681 | 24 ft | 4 kts | 192° |
| 2026-04-25 20:38 | 55.62663 | 12.64672 | 24 ft | 4 kts | 192° |
| 2026-04-25 20:39 | 55.62636 | 12.64663 | 24 ft | 4 kts | 192° |
| 2026-04-25 20:39 | 55.62629 | 12.64660 | 24 ft | 0 kts | 192° |
| 2026-04-25 20:43 | 55.62606 | 12.64653 | 24 ft | 5 kts | 185° |
| 2026-04-25 20:44 | 55.62579 | 12.64653 | 24 ft | 3 kts | 180° |
| 2026-04-25 20:44 | 55.62536 | 12.64652 | 24 ft | 8 kts | 179° |
| 2026-04-25 20:44 | 55.62487 | 12.64659 | 24 ft | 7 kts | 172° |
| 2026-04-25 20:44 | 55.62422 | 12.64673 | 24 ft | 9 kts | 177° |
| 2026-04-25 20:45 | 55.62365 | 12.64677 | 24 ft | 7 kts | 177° |
| 2026-04-25 20:45 | 55.62305 | 12.64758 | 24 ft | 13 kts | 122° |
| 2026-04-25 20:45 | 55.62261 | 12.64882 | 24 ft | 11 kts | 122° |
| 2026-04-25 20:45 | 55.62230 | 12.64964 | 25 ft | 6 kts | 123° |
| 2026-04-25 20:46 | 55.62199 | 12.65048 | 24 ft | 8 kts | 123° |
| 2026-04-25 20:46 | 55.62165 | 12.65105 | 24 ft | 6 kts | 160° |
| 2026-04-25 20:46 | 55.62099 | 12.65051 | 27 ft | 17 kts | 214° |
| 2026-04-25 20:46 | 55.61998 | 12.64932 | 24 ft | 17 kts | 214° |
| 2026-04-25 20:47 | 55.61904 | 12.64827 | 24 ft | 15 kts | 213° |
| 2026-04-25 20:47 | 55.61819 | 12.64731 | 25 ft | 14 kts | 212° |
| 2026-04-25 20:47 | 55.61718 | 12.64613 | 24 ft | 21 kts | 213° |
| 2026-04-25 20:47 | 55.61597 | 12.64474 | 25 ft | 20 kts | 213° |
| 2026-04-25 20:48 | 55.61487 | 12.64348 | 26 ft | 18 kts | 212° |
| 2026-04-25 20:48 | 55.61388 | 12.64232 | 25 ft | 16 kts | 214° |
| 2026-04-25 20:48 | 55.61298 | 12.64129 | 25 ft | 15 kts | 213° |
| 2026-04-25 20:48 | 55.61217 | 12.64035 | 24 ft | 13 kts | 213° |
| 2026-04-25 20:49 | 55.61116 | 12.63920 | 26 ft | 19 kts | 213° |
| 2026-04-25 20:49 | 55.61009 | 12.63798 | 25 ft | 17 kts | 213° |
| 2026-04-25 20:49 | 55.60914 | 12.63689 | 24 ft | 15 kts | 213° |
| 2026-04-25 20:49 | 55.60828 | 12.63590 | 25 ft | 14 kts | 213° |
| 2026-04-25 20:50 | 55.60742 | 12.63493 | 26 ft | 18 kts | 212° |
| 2026-04-25 20:50 | 55.60624 | 12.63344 | 25 ft | 22 kts | 219° |
| 2026-04-25 20:50 | 55.60551 | 12.63230 | 24 ft | 21 kts | 221° |
| 2026-04-25 20:50 | 55.60456 | 12.63113 | 24 ft | 15 kts | 193° |
| 2026-04-25 20:51 | 55.60372 | 12.63225 | 24 ft | 24 kts | 133° |
| 2026-04-25 20:51 | 55.60415 | 12.63460 | 24 ft | 21 kts | 27° |
| 2026-04-25 20:51 | 55.60559 | 12.63684 | 24 ft | 48 kts | 41° |
| 2026-04-25 20:51 | 55.60985 | 12.64341 | 24 ft | 112 kts | 41° |
| 2026-04-25 20:52 | 55.61712 | 12.65459 | 29 ft | 162 kts | 40° |
| 2026-04-25 20:52 | 55.62286 | 12.66397 | 301 ft | 169 kts | 37° |
| 2026-04-25 20:52 | 55.63522 | 12.68317 | 1065 ft | 182 kts | 34° |
| 2026-04-25 20:52 | 55.64479 | 12.69772 | 1719 ft | 187 kts | 33° |
| 2026-04-25 20:53 | 55.65512 | 12.71344 | 2264 ft | 204 kts | 34° |
| 2026-04-25 20:53 | 55.66648 | 12.73018 | 2859 ft | 221 kts | 34° |
| 2026-04-25 20:53 | 55.67877 | 12.74807 | 3508 ft | 236 kts | 35° |
| 2026-04-25 20:53 | 55.69148 | 12.76730 | 4367 ft | 243 kts | 42° |